createdAt,value
2023-03-28T00:01:41.269Z,101206.50
2023-03-28T00:04:13.000Z,101207.28
2023-03-28T00:06:47.378Z,101217.63
2023-03-28T00:09:19.460Z,101253.97
2023-03-28T00:11:50.787Z,101268.94
2023-03-28T00:14:22.148Z,101266.19
2023-03-28T00:16:53.570Z,101321.13
2023-03-28T00:19:24.915Z,101302.50
2023-03-28T00:21:57.476Z,101317.47
2023-03-28T00:24:28.819Z,101305.69
2023-03-28T00:27:00.661Z,101277.22
2023-03-28T00:29:32.328Z,101318.81
2023-03-28T00:32:03.884Z,101324.81
2023-03-28T00:34:35.207Z,101361.03
2023-03-28T00:37:06.636Z,101344.13
2023-03-28T00:39:39.951Z,101340.69
2023-03-28T00:42:14.172Z,101263.34
2023-03-28T00:44:53.511Z,101363.44
2023-03-28T00:47:27.725Z,101371.22
2023-03-28T00:50:37.339Z,101347.16
2023-03-28T00:53:20.020Z,101293.03
2023-03-28T00:56:08.443Z,101375.34
2023-03-28T00:58:42.512Z,101300.72
2023-03-28T01:01:15.921Z,101270.47
2023-03-28T01:04:02.102Z,101379.44
2023-03-28T01:06:37.784Z,101370.56
2023-03-28T01:09:09.291Z,101366.97
2023-03-28T01:15:26.538Z,101363.88
2023-03-28T01:18:03.068Z,101372.53
2023-03-28T01:21:05.213Z,101293.53
2023-03-28T01:24:11.178Z,101419.16
2023-03-28T01:26:52.914Z,101377.28
2023-03-28T01:29:34.723Z,101431.91
2023-03-28T01:32:28.627Z,101417.00
2023-03-28T01:35:44.177Z,101311.00
2023-03-28T01:38:44.803Z,101411.84
2023-03-28T01:41:29.357Z,101406.56
2023-03-28T01:44:33.061Z,101439.16
2023-03-28T01:47:13.208Z,101443.44
2023-03-28T01:50:23.258Z,101435.44
2023-03-28T01:53:08.474Z,101411.34
2023-03-28T01:56:01.890Z,101339.28
2023-03-28T01:58:46.511Z,101445.69
2023-03-28T02:01:25.039Z,101418.94
2023-03-28T02:04:03.330Z,101354.81
2023-03-28T02:06:38.462Z,101336.22
2023-03-28T02:09:11.412Z,101408.00
2023-03-28T02:11:44.270Z,101334.03
2023-03-28T02:14:21.311Z,101428.06
2023-03-28T02:17:00.409Z,101397.88
2023-03-28T02:19:34.988Z,101437.56
2023-03-28T02:22:09.076Z,101447.28
2023-03-28T02:24:40.675Z,101393.59
2023-03-28T02:27:12.135Z,101445.56
2023-03-28T02:29:43.436Z,101439.22
2023-03-28T02:32:16.868Z,101440.81
2023-03-28T02:34:51.415Z,101440.75
2023-03-28T02:38:00.488Z,101471.50
2023-03-28T02:40:46.516Z,101470.88
2023-03-28T02:43:26.606Z,101435.94
2023-03-28T02:46:29.200Z,101461.59
2023-03-28T02:49:47.190Z,101397.28
2023-03-28T02:52:50.513Z,101474.97
2023-03-28T02:55:44.744Z,101475.50
2023-03-28T02:58:37.629Z,101388.78
2023-03-28T03:01:10.706Z,101454.44
2023-03-28T03:03:43.914Z,101427.41
2023-03-28T03:06:17.853Z,101469.06
2023-03-28T03:08:49.427Z,101469.69
2023-03-28T03:11:21.342Z,101460.66
2023-03-28T03:13:52.673Z,101461.31
2023-03-28T03:16:24.055Z,101445.66
2023-03-28T03:18:56.937Z,101450.50
2023-03-28T03:21:28.270Z,101398.53
2023-03-28T03:23:59.571Z,101384.31
2023-03-28T03:26:31.135Z,101464.53
2023-03-28T03:29:03.015Z,101471.97
2023-03-28T03:31:34.569Z,101418.19
2023-03-28T03:34:07.496Z,101486.94
2023-03-28T03:36:40.617Z,101501.09
2023-03-28T03:39:12.098Z,101453.44
2023-03-28T03:41:43.508Z,101465.06
2023-03-28T03:44:14.998Z,101477.34
2023-03-28T03:46:46.474Z,101409.09
2023-03-28T03:49:17.966Z,101461.44
2023-03-28T03:51:49.289Z,101454.44
2023-03-28T03:54:20.671Z,101416.34
2023-03-28T03:56:52.089Z,101477.50
2023-03-28T03:59:23.596Z,101475.59
2023-03-28T04:01:55.854Z,101494.34
2023-03-28T04:04:28.074Z,101504.88
2023-03-28T04:06:59.652Z,101482.66
2023-03-28T04:09:31.390Z,101494.97
2023-03-28T04:12:03.042Z,101523.06
2023-03-28T04:14:34.368Z,101396.75
2023-03-28T04:17:06.875Z,101490.13
2023-03-28T04:19:40.598Z,101389.44
2023-03-28T04:22:12.961Z,101450.59
2023-03-28T04:24:45.004Z,101501.25
2023-03-28T04:27:17.663Z,101405.72
2023-03-28T04:29:49.195Z,101498.88
2023-03-28T04:32:21.276Z,101446.09
2023-03-28T04:34:52.775Z,101512.56
2023-03-28T04:37:24.265Z,101506.00
2023-03-28T04:39:55.754Z,101411.38
2023-03-28T04:42:27.600Z,101425.47
2023-03-28T04:44:59.174Z,101506.28
2023-03-28T04:47:31.175Z,101519.63
2023-03-28T04:50:02.513Z,101466.22
2023-03-28T04:52:34.881Z,101523.19
2023-03-28T04:55:07.837Z,101431.50
2023-03-28T04:57:39.559Z,101506.00
2023-03-28T05:00:16.703Z,101530.72
2023-03-28T05:02:48.508Z,101521.69
2023-03-28T05:05:20.658Z,101531.41
2023-03-28T05:07:52.072Z,101530.31
2023-03-28T05:10:23.660Z,101454.41
2023-03-28T05:12:55.254Z,101483.78
2023-03-28T05:15:26.703Z,101505.59
2023-03-28T05:17:59.546Z,101585.22
2023-03-28T05:20:31.863Z,101553.38
2023-03-28T05:23:05.938Z,101500.25
2023-03-28T05:25:37.588Z,101560.97
2023-03-28T05:28:09.153Z,101592.63
2023-03-28T05:30:40.573Z,101578.50
2023-03-28T05:33:12.216Z,101579.53
2023-03-28T05:35:44.150Z,101594.00
2023-03-28T05:38:16.330Z,101585.91
2023-03-28T05:40:47.836Z,101567.50
2023-03-28T05:43:20.038Z,101590.56
2023-03-28T05:45:51.583Z,101570.44
2023-03-28T05:48:22.987Z,101542.78
2023-03-28T05:50:54.434Z,101498.69
2023-03-28T05:53:26.072Z,101614.75
2023-03-28T05:55:57.402Z,101558.94
2023-03-28T05:58:29.512Z,101583.56
2023-03-28T06:01:02.936Z,101598.91
2023-03-28T06:03:39.692Z,101604.72
2023-03-28T06:06:11.269Z,101503.59
2023-03-28T06:08:42.799Z,101601.22
2023-03-28T06:11:14.586Z,101548.50
2023-03-28T06:13:46.012Z,101573.03
2023-03-28T06:16:17.553Z,101584.22
2023-03-28T06:18:49.004Z,101600.47
2023-03-28T06:21:21.070Z,101603.53
2023-03-28T06:23:52.813Z,101510.69
2023-03-28T06:26:24.258Z,101572.38
2023-03-28T06:28:55.791Z,101612.59
2023-03-28T06:31:28.324Z,101604.09
2023-03-28T06:34:00.210Z,101615.00
2023-03-28T06:36:31.658Z,101610.03
2023-03-28T06:39:03.851Z,101616.63
2023-03-28T06:41:35.300Z,101614.59
2023-03-28T06:44:06.879Z,101626.72
2023-03-28T06:46:39.117Z,101617.50
2023-03-28T06:49:10.887Z,101535.59
2023-03-28T06:51:42.357Z,101619.13
2023-03-28T06:54:14.746Z,101589.44
2023-03-28T06:56:46.155Z,101627.25
2023-03-28T06:59:17.768Z,101623.28
2023-03-28T07:01:49.165Z,101637.72
2023-03-28T07:04:20.603Z,101631.47
2023-03-28T07:06:51.998Z,101595.09
2023-03-28T07:09:23.365Z,101640.16
2023-03-28T07:11:54.722Z,101635.72
2023-03-28T07:14:26.605Z,101655.19
2023-03-28T07:16:58.238Z,101681.88
2023-03-28T07:19:30.027Z,101650.88
2023-03-28T07:22:01.692Z,101666.75
2023-03-28T07:24:33.208Z,101681.25
2023-03-28T07:27:14.739Z,101666.56
2023-03-28T07:29:48.175Z,101622.66
2023-03-28T07:32:19.706Z,101680.44
2023-03-28T07:34:51.336Z,101680.59
2023-03-28T07:37:23.247Z,101691.41
2023-03-28T07:39:56.449Z,101686.34
2023-03-28T07:42:27.932Z,101675.03
2023-03-28T07:45:00.689Z,101684.75
2023-03-28T07:47:32.136Z,101696.88
2023-03-28T07:50:04.224Z,101700.22
2023-03-28T07:52:35.705Z,101704.13
2023-03-28T07:55:07.487Z,101677.66
2023-03-28T07:57:39.399Z,101698.53
2023-03-28T08:00:15.599Z,101632.81
2023-03-28T08:02:47.035Z,101630.13
2023-03-28T08:05:18.692Z,101709.06
2023-03-28T08:07:53.763Z,101695.13
2023-03-28T08:10:25.431Z,101617.41
2023-03-28T08:12:57.896Z,101618.75
2023-03-28T08:15:29.430Z,101694.56
2023-03-28T08:18:00.847Z,101713.09
2023-03-28T08:20:33.356Z,101716.47
2023-03-28T08:23:04.830Z,101726.56
2023-03-28T08:25:36.383Z,101637.47
2023-03-28T08:28:08.819Z,101709.28
2023-03-28T08:30:40.339Z,101709.34
2023-03-28T08:33:12.297Z,101711.00
2023-03-28T08:35:43.780Z,101715.22
2023-03-28T08:38:15.273Z,101700.81
2023-03-28T08:41:01.041Z,101727.22
2023-03-28T08:43:53.400Z,101722.88
2023-03-28T08:46:28.388Z,101690.28
2023-03-28T08:49:04.956Z,101648.75
2023-03-28T08:51:40.872Z,101724.03
2023-03-28T08:54:23.526Z,101740.78
2023-03-28T08:57:01.788Z,101711.81
2023-03-28T09:00:00.991Z,101730.66
2023-03-28T09:02:32.628Z,101682.16
2023-03-28T09:05:22.032Z,101710.59
2023-03-28T09:07:55.646Z,101731.06
2023-03-28T09:10:43.501Z,101671.06
2023-03-28T09:13:33.550Z,101738.41
2023-03-28T09:16:18.966Z,101715.41
2023-03-28T09:19:15.474Z,101729.50
2023-03-28T09:22:15.213Z,101717.44
2023-03-28T09:25:07.227Z,101733.59
2023-03-28T09:27:50.981Z,101737.16
2023-03-28T09:30:27.296Z,101734.47
2023-03-28T09:33:03.119Z,101730.00
2023-03-28T09:35:34.575Z,101714.06
2023-03-28T09:38:16.060Z,101719.38
2023-03-28T09:40:49.330Z,101705.19
2023-03-28T09:43:46.316Z,101736.97
2023-03-28T09:46:44.988Z,101739.75
2023-03-28T09:49:23.016Z,101742.63
2023-03-28T09:51:56.582Z,101649.00
2023-03-28T09:54:35.409Z,101727.72
2023-03-28T09:57:06.888Z,101687.09
2023-03-28T09:59:38.485Z,101720.66
2023-03-28T10:02:32.205Z,101658.81
2023-03-28T10:05:06.251Z,101715.38
2023-03-28T10:07:44.075Z,101710.06
2023-03-28T10:10:24.759Z,101654.34
2023-03-28T10:12:59.634Z,101743.63
2023-03-28T10:15:45.820Z,101724.06
2023-03-28T10:18:20.859Z,101683.34
2023-03-28T10:20:52.440Z,101727.59
2023-03-28T10:23:25.066Z,101743.41
2023-03-28T10:26:02.755Z,101728.31
2023-03-28T10:28:36.768Z,101721.16
2023-03-28T10:31:21.984Z,101702.56
2023-03-28T10:33:53.513Z,101720.25
2023-03-28T10:36:32.578Z,101696.47
2023-03-28T10:39:25.189Z,101655.94
2023-03-28T10:42:00.929Z,101728.56
2023-03-28T10:44:38.032Z,101752.47
2023-03-28T10:47:19.179Z,101710.81
2023-03-28T10:49:55.502Z,101740.94
2023-03-28T10:52:53.709Z,101704.63
2023-03-28T10:55:37.605Z,101724.06
2023-03-28T10:58:26.709Z,101719.66
2023-03-28T11:01:05.755Z,101690.44
2023-03-28T11:04:02.444Z,101739.06
2023-03-28T11:06:37.580Z,101662.94
2023-03-28T11:09:25.042Z,101711.66
2023-03-28T11:12:43.842Z,101688.59
2023-03-28T11:15:44.938Z,101742.50
2023-03-28T11:18:35.297Z,101752.13
2023-03-28T11:21:21.032Z,101748.09
2023-03-28T11:24:04.423Z,101668.59
2023-03-28T11:26:48.492Z,101669.47
2023-03-28T11:29:43.092Z,101735.50
2023-03-28T11:32:39.436Z,101731.06
2023-03-28T11:35:17.084Z,101761.19
2023-03-28T11:38:04.485Z,101663.69
2023-03-28T11:40:52.576Z,101748.13
2023-03-28T11:43:34.002Z,101696.13
2023-03-28T11:46:10.110Z,101760.97
2023-03-28T11:49:16.063Z,101754.97
2023-03-28T11:51:47.435Z,101755.91
2023-03-28T11:54:35.396Z,101719.88
2023-03-28T11:57:11.647Z,101722.94
2023-03-28T11:59:52.902Z,101738.16
2023-03-28T12:02:30.582Z,101736.53
2023-03-28T12:05:40.075Z,101737.47
2023-03-28T12:08:24.311Z,101727.81
2023-03-28T12:11:02.834Z,101632.41
2023-03-28T12:14:23.596Z,101712.34
2023-03-28T12:16:58.750Z,101713.31
2023-03-28T12:19:40.905Z,101707.97
2023-03-28T12:22:40.318Z,101722.88
2023-03-28T12:25:22.927Z,101731.47
2023-03-28T12:28:33.515Z,101733.13
2023-03-28T12:31:13.626Z,101731.28
2023-03-28T12:33:58.825Z,101720.59
2023-03-28T12:36:44.755Z,101716.25
2023-03-28T12:39:35.376Z,101726.09
2023-03-28T12:42:11.973Z,101669.44
2023-03-28T12:44:59.422Z,101626.97
2023-03-28T12:47:37.144Z,101625.31
2023-03-28T12:50:18.006Z,101721.13
2023-03-28T12:52:49.741Z,101698.41
2023-03-28T12:55:24.051Z,101708.22
2023-03-28T12:58:26.883Z,101635.75
2023-03-28T13:01:17.939Z,101664.06
2023-03-28T13:04:23.133Z,101707.41
2023-03-28T13:07:23.367Z,101620.78
2023-03-28T13:10:06.258Z,101699.44
2023-03-28T13:12:50.741Z,101659.63
2023-03-28T13:15:32.873Z,101653.25
2023-03-28T13:18:22.118Z,101689.28
2023-03-28T13:20:54.458Z,101608.06
2023-03-28T13:23:33.165Z,101602.72
2023-03-28T13:26:06.614Z,101660.81
2023-03-28T13:28:51.517Z,101681.19
2023-03-28T13:31:26.744Z,101657.31
2023-03-28T13:34:02.348Z,101576.19
2023-03-28T13:36:35.380Z,101672.41
2023-03-28T13:39:24.964Z,101654.00
2023-03-28T13:41:58.377Z,101654.13
2023-03-28T13:44:39.702Z,101640.09
2023-03-28T13:47:17.744Z,101557.13
2023-03-28T13:50:01.739Z,101626.97
2023-03-28T13:52:33.388Z,101633.19
2023-03-28T13:55:17.497Z,101600.47
2023-03-28T13:57:50.319Z,101639.34
2023-03-28T14:00:25.922Z,101643.66
2023-03-28T14:03:03.758Z,101625.84
2023-03-28T14:05:44.028Z,101636.13
2023-03-28T14:08:15.656Z,101635.16
2023-03-28T14:10:47.902Z,101558.34
2023-03-28T14:13:23.037Z,101607.56
2023-03-28T14:15:55.828Z,101558.69
2023-03-28T14:18:40.933Z,101573.31
2023-03-28T14:21:12.428Z,101590.97
2023-03-28T14:24:06.276Z,101599.19
2023-03-28T14:26:38.025Z,101589.59
2023-03-28T14:29:15.325Z,101536.66
2023-03-28T14:31:48.472Z,101507.63
2023-03-28T14:34:32.049Z,101546.53
2023-03-28T14:37:16.612Z,101590.78
2023-03-28T14:39:48.861Z,101502.63
2023-03-28T14:42:22.533Z,101547.69
2023-03-28T14:44:54.726Z,101545.00
2023-03-28T14:47:30.817Z,101549.25
2023-03-28T14:50:02.422Z,101580.84
2023-03-28T14:52:38.209Z,101555.06
2023-03-28T14:55:20.311Z,101555.75
2023-03-28T14:57:54.026Z,101516.00
2023-03-28T15:00:36.060Z,101529.13
2023-03-28T15:03:14.936Z,101497.31
2023-03-28T15:05:49.940Z,101549.34
2023-03-28T15:08:36.775Z,101558.97
2023-03-28T15:11:15.552Z,101543.16
2023-03-28T15:13:57.949Z,101543.31
2023-03-28T15:16:32.237Z,101532.88
2023-03-28T15:19:09.110Z,101553.34
2023-03-28T15:21:42.311Z,101557.91
2023-03-28T15:24:18.528Z,101550.97
2023-03-28T15:26:53.422Z,101547.69
2023-03-28T15:29:25.689Z,101534.75
2023-03-28T15:32:03.864Z,101511.00
2023-03-28T15:34:56.420Z,101534.00
2023-03-28T15:37:27.837Z,101506.72
2023-03-28T15:40:32.311Z,101505.88
2023-03-28T15:43:05.230Z,101496.13
2023-03-28T15:45:41.419Z,101498.75
2023-03-28T15:48:14.912Z,101515.41
2023-03-28T15:50:53.638Z,101455.41
2023-03-28T15:53:29.861Z,101500.28
2023-03-28T15:56:05.990Z,101502.81
2023-03-28T15:58:43.621Z,101413.72
2023-03-28T16:01:22.126Z,101478.97
2023-03-28T16:04:26.267Z,101495.72
2023-03-28T16:07:11.939Z,101406.78
2023-03-28T16:09:43.699Z,101495.06
2023-03-28T16:12:15.450Z,101411.34
2023-03-28T16:14:53.006Z,101396.41
2023-03-28T16:17:29.103Z,101481.16
2023-03-28T16:20:00.681Z,101477.63
2023-03-28T16:22:32.161Z,101470.59
2023-03-28T16:25:03.593Z,101461.78
2023-03-28T16:27:37.652Z,101480.28
2023-03-28T16:30:37.344Z,101484.72
2023-03-28T16:33:08.941Z,101422.94
2023-03-28T16:35:40.591Z,101499.75
2023-03-28T16:38:11.973Z,101392.13
2023-03-28T16:40:45.253Z,101397.44
2023-03-28T16:43:17.263Z,101491.88
2023-03-28T16:45:50.824Z,101470.66
2023-03-28T16:48:22.207Z,101498.91
2023-03-28T16:50:58.534Z,101464.47
2023-03-28T16:53:30.475Z,101481.22
2023-03-28T16:56:02.804Z,101394.66
2023-03-28T16:58:34.774Z,101404.34
2023-03-28T17:01:09.366Z,101423.69
2023-03-28T17:03:41.225Z,101399.78
2023-03-28T17:06:12.893Z,101491.59
2023-03-28T17:08:44.367Z,101496.81
2023-03-28T17:11:16.198Z,101480.88
2023-03-28T17:13:51.546Z,101498.53
2023-03-28T17:16:23.537Z,101462.22
2023-03-28T17:18:54.924Z,101478.06
2023-03-28T17:21:26.670Z,101490.41
2023-03-28T17:23:58.017Z,101502.75
2023-03-28T17:26:29.401Z,101479.69
2023-03-28T17:29:01.100Z,101397.47
2023-03-28T17:31:32.550Z,101436.22
2023-03-28T17:34:04.312Z,101475.94
2023-03-28T17:36:36.437Z,101421.03
2023-03-28T17:39:09.087Z,101432.38
2023-03-28T17:41:41.481Z,101455.31
2023-03-28T17:44:12.809Z,101462.28
2023-03-28T17:46:45.536Z,101421.47
2023-03-28T17:49:18.302Z,101465.66
2023-03-28T17:51:50.120Z,101466.53
2023-03-28T17:54:22.355Z,101441.75
2023-03-28T17:56:54.108Z,101445.28
2023-03-28T17:59:25.474Z,101454.06
2023-03-28T18:01:56.909Z,101463.81
2023-03-28T18:04:28.286Z,101412.47
2023-03-28T18:06:59.689Z,101445.16
2023-03-28T18:09:32.069Z,101414.31
2023-03-28T18:12:03.535Z,101449.66
2023-03-28T18:14:35.005Z,101353.28
2023-03-28T18:17:06.476Z,101442.56
2023-03-28T18:19:37.856Z,101427.56
2023-03-28T18:22:09.590Z,101422.31
2023-03-28T18:24:41.247Z,101336.53
2023-03-28T18:27:12.675Z,101438.09
2023-03-28T18:29:43.984Z,101339.06
2023-03-28T18:32:16.223Z,101408.94
2023-03-28T18:34:48.618Z,101414.22
2023-03-28T18:37:20.180Z,101406.25
2023-03-28T18:39:54.568Z,101418.56
2023-03-28T18:42:26.422Z,101357.44
2023-03-28T18:44:57.935Z,101411.38
2023-03-28T18:47:29.341Z,101426.31
2023-03-28T18:50:00.751Z,101418.34
2023-03-28T18:52:32.601Z,101420.94
2023-03-28T18:55:07.341Z,101403.25
2023-03-28T18:57:38.762Z,101404.09
2023-03-28T19:00:18.253Z,101395.28
2023-03-28T19:02:50.021Z,101405.84
2023-03-28T19:05:22.037Z,101411.94
2023-03-28T19:07:53.366Z,101418.88
2023-03-28T19:10:25.876Z,101410.03
2023-03-28T19:12:57.672Z,101383.59
2023-03-28T19:15:29.293Z,101373.91
2023-03-28T19:18:02.900Z,101386.34
2023-03-28T19:20:34.769Z,101372.31
2023-03-28T19:23:06.295Z,101382.06
2023-03-28T19:25:38.033Z,101290.16
2023-03-28T19:28:09.461Z,101359.06
2023-03-28T19:30:41.117Z,101376.75
2023-03-28T19:33:12.677Z,101374.09
2023-03-28T19:35:44.427Z,101378.56
2023-03-28T19:38:15.793Z,101323.75
2023-03-28T19:40:47.353Z,101368.91
2023-03-28T19:43:21.866Z,101364.41
2023-03-28T19:45:54.380Z,101352.19
2023-03-28T19:48:26.183Z,101352.16
2023-03-28T19:50:57.735Z,101346.00
2023-03-28T19:53:29.301Z,101331.06
2023-03-28T19:56:01.105Z,101256.88
2023-03-28T19:58:33.061Z,101325.78
2023-03-28T20:01:04.786Z,101357.63
2023-03-28T20:03:36.200Z,101343.50
2023-03-28T20:06:10.963Z,101333.78
2023-03-28T20:08:42.664Z,101261.28
2023-03-28T20:11:15.064Z,101317.88
2023-03-28T20:13:46.484Z,101273.72
2023-03-28T20:16:17.897Z,101328.47
2023-03-28T20:18:49.336Z,101339.13
2023-03-28T20:21:20.668Z,101279.06
2023-03-28T20:23:52.632Z,101322.34
2023-03-28T20:26:26.999Z,101302.97
2023-03-28T20:28:59.422Z,101313.56
2023-03-28T20:31:31.067Z,101322.34
2023-03-28T20:34:02.472Z,101306.50
2023-03-28T20:36:33.874Z,101302.97
2023-03-28T20:39:05.245Z,101272.88
2023-03-28T20:41:37.561Z,101291.47
2023-03-28T20:44:09.692Z,101300.22
2023-03-28T20:46:41.513Z,101288.81
2023-03-28T20:49:12.869Z,101276.47
2023-03-28T20:51:44.356Z,101187.31
2023-03-28T20:54:16.681Z,101267.66
2023-03-28T20:56:49.461Z,101272.97
2023-03-28T20:59:22.573Z,101257.91
2023-03-28T21:01:54.579Z,101189.94
2023-03-28T21:04:27.902Z,101193.50
2023-03-28T21:07:02.018Z,101265.03
2023-03-28T21:09:33.343Z,101273.91
2023-03-28T21:12:05.072Z,101259.75
2023-03-28T21:14:36.634Z,101251.88
2023-03-28T21:17:08.621Z,101183.91
2023-03-28T21:19:39.944Z,101257.16
2023-03-28T21:22:11.511Z,101252.75
2023-03-28T21:24:42.879Z,101266.06
2023-03-28T21:27:18.142Z,101189.31
2023-03-28T21:29:49.513Z,101236.06
2023-03-28T21:32:20.865Z,101170.78
2023-03-28T21:34:56.302Z,101259.06
2023-03-28T21:37:28.179Z,101248.44
2023-03-28T21:39:59.472Z,101162.88
2023-03-28T21:42:30.853Z,101257.22
2023-03-28T21:45:02.225Z,101220.13
2023-03-28T21:47:33.682Z,101267.78
2023-03-28T21:50:07.331Z,101229.84
2023-03-28T21:52:38.837Z,101220.13
2023-03-28T21:55:10.394Z,101209.53
2023-03-28T21:57:41.737Z,101192.75
2023-03-28T22:00:16.571Z,101268.78
2023-03-28T22:02:48.016Z,101185.81
2023-03-28T22:05:28.527Z,101229.13
2023-03-28T22:08:01.715Z,101256.47
2023-03-28T22:10:33.918Z,101242.53
2023-03-28T22:13:06.681Z,101253.16
2023-03-28T22:15:38.040Z,101238.22
2023-03-28T22:18:09.738Z,101174.69
2023-03-28T22:20:43.501Z,101238.28
2023-03-28T22:23:14.940Z,101187.13
2023-03-28T22:25:46.602Z,101239.28
2023-03-28T22:28:18.805Z,101240.19
2023-03-28T22:30:53.227Z,101214.56
2023-03-28T22:33:25.286Z,101205.72
2023-03-28T22:35:57.799Z,101135.19
2023-03-28T22:38:29.260Z,101217.22
2023-03-28T22:41:01.271Z,101154.59
2023-03-28T22:43:33.887Z,101155.47
2023-03-28T22:46:05.749Z,101174.03
2023-03-28T22:48:38.127Z,101204.88
2023-03-28T22:51:12.169Z,101227.00
2023-03-28T22:53:43.489Z,101199.63
2023-03-28T22:56:14.803Z,101135.19
2023-03-28T22:58:46.149Z,101194.38
2023-03-28T23:01:17.483Z,101206.81
2023-03-28T23:03:49.013Z,101153.81
2023-03-28T23:06:20.453Z,101121.16
2023-03-28T23:08:51.883Z,101188.28
2023-03-28T23:11:23.203Z,101186.50
2023-03-28T23:13:54.554Z,101109.72
2023-03-28T23:16:26.322Z,101189.06
2023-03-28T23:18:57.616Z,101189.13
2023-03-28T23:21:30.839Z,101125.56
2023-03-28T23:24:03.890Z,101199.78
2023-03-28T23:26:35.438Z,101146.81
2023-03-28T23:29:06.876Z,101156.53
2023-03-28T23:31:38.351Z,101172.38
2023-03-28T23:34:09.642Z,101199.78
2023-03-28T23:36:45.923Z,101186.63
2023-03-28T23:39:17.431Z,101184.91
2023-03-28T23:41:49.915Z,101120.47
2023-03-28T23:44:21.611Z,101191.03
2023-03-28T23:46:53.060Z,101160.22
2023-03-28T23:49:24.373Z,101076.44
2023-03-28T23:51:55.855Z,101142.63
2023-03-28T23:54:29.794Z,101139.09
2023-03-28T23:57:01.134Z,101132.91
2023-03-28T23:59:32.879Z,101110.88
